Lamotte, Illinois
Current Conditions -  °F | °C
As of 10:15 AM on Monday 24 Nov 2014 (Local Time) from KRSV Reporting Station
Overcast Overcast  
Wind Chill: 30°   Ceiling: 2000
Heat Index: 40°   Visibility: 10mi
Dew Point: 36°   Wind: 21mph
Humidity: 85%   Direction: 250°WSW
Pressure: 29.62"   Gusts: 28mph
Location:  39.0088°N, 87.6216°W
Report Text: KRSV 241615Z AUTO 25018G24KT 10SM OVC020 04/02 A2962 RMK AO2 T00430020
Loading
Personal Weather Stations






























Interactive Weather Map New forecast layout! Learn more

10-Day Weather Forecast

Advertisements
Track Severe Weather on mobile